createdAt,value
2022-11-13T00:00:23.883Z,44.91
2022-11-13T00:01:10.346Z,45.32
2022-11-13T00:01:52.213Z,45.24
2022-11-13T00:02:33.336Z,45.36
2022-11-13T00:03:15.845Z,45.27
2022-11-13T00:03:58.485Z,45.17
2022-11-13T00:04:38.835Z,45.07
2022-11-13T00:05:20.131Z,45.29
2022-11-13T00:06:00.942Z,44.95
2022-11-13T00:06:42.082Z,45.15
2022-11-13T00:07:22.078Z,44.99
2022-11-13T00:08:02.496Z,45.01
2022-11-13T00:08:43.745Z,44.81
2022-11-13T00:09:23.854Z,44.88
2022-11-13T00:10:05.226Z,44.89
2022-11-13T00:10:46.640Z,45.06
2022-11-13T00:11:26.672Z,45.12
2022-11-13T00:12:06.954Z,45.00
2022-11-13T00:12:48.446Z,45.34
2022-11-13T00:13:30.497Z,45.13
2022-11-13T00:14:11.907Z,45.18
2022-11-13T00:14:52.208Z,45.19
2022-11-13T00:15:32.560Z,45.26
2022-11-13T00:16:15.647Z,45.22
2022-11-13T00:16:55.983Z,45.39
2022-11-13T00:17:37.252Z,45.44
2022-11-13T00:18:18.735Z,45.62
2022-11-13T00:19:00.284Z,45.61
2022-11-13T00:19:40.714Z,45.68
2022-11-13T00:20:21.135Z,45.86
2022-11-13T00:21:06.592Z,45.96
2022-11-13T00:21:46.904Z,46.04
2022-11-13T00:22:28.352Z,45.83
2022-11-13T00:23:08.435Z,45.80
2022-11-13T00:23:50.742Z,45.51
2022-11-13T00:24:31.493Z,45.79
2022-11-13T00:25:12.543Z,45.40
2022-11-13T00:25:52.611Z,45.22
2022-11-13T00:26:33.949Z,45.27
2022-11-13T00:27:14.526Z,45.49
2022-11-13T00:27:54.776Z,45.17
2022-11-13T00:28:37.320Z,45.33
2022-11-13T00:29:17.584Z,45.57
2022-11-13T00:29:58.897Z,45.41
2022-11-13T00:30:38.972Z,45.22
2022-11-13T00:31:20.466Z,45.28
2022-11-13T00:32:00.663Z,45.07
2022-11-13T00:32:40.991Z,45.24
2022-11-13T00:33:45.240Z,45.32
2022-11-13T00:34:46.660Z,45.03
2022-11-13T00:35:25.441Z,44.96
2022-11-13T00:36:08.530Z,45.17
2022-11-13T00:36:49.876Z,45.24
2022-11-13T00:37:30.102Z,45.21
2022-11-13T00:38:10.240Z,45.10
2022-11-13T00:38:51.919Z,45.04
2022-11-13T00:39:32.218Z,45.33
2022-11-13T00:40:12.632Z,45.32
2022-11-13T00:40:54.017Z,45.19
2022-11-13T00:41:34.024Z,44.88
2022-11-13T00:42:14.432Z,44.98
2022-11-13T00:42:55.739Z,45.32
2022-11-13T00:43:35.674Z,45.23
2022-11-13T00:44:17.140Z,45.16
2022-11-13T00:44:57.149Z,45.13
2022-11-13T00:45:37.551Z,45.30
2022-11-13T00:46:19.012Z,45.14
2022-11-13T00:46:59.396Z,45.36
2022-11-13T00:47:40.866Z,45.19
2022-11-13T00:48:22.344Z,45.02
2022-11-13T00:49:02.661Z,45.00
2022-11-13T00:49:43.752Z,44.84
2022-11-13T00:50:24.282Z,44.94
2022-11-13T00:51:04.940Z,45.00
2022-11-13T00:51:46.020Z,44.94
2022-11-13T00:52:26.060Z,45.21
2022-11-13T00:53:06.562Z,45.19
2022-11-13T00:53:47.937Z,45.32
2022-11-13T00:54:28.399Z,45.26
2022-11-13T00:55:08.938Z,45.40
2022-11-13T00:55:50.988Z,45.13
2022-11-13T00:56:31.082Z,45.34
2022-11-13T00:57:12.401Z,45.35
2022-11-13T00:57:52.646Z,45.94
2022-11-13T00:58:34.130Z,45.97
2022-11-13T00:59:14.262Z,45.66
2022-11-13T00:59:55.643Z,45.80
2022-11-13T01:00:35.699Z,45.55
2022-11-13T01:01:19.203Z,45.61
2022-11-13T01:02:00.324Z,45.82
2022-11-13T01:02:40.500Z,45.73
2022-11-13T01:03:23.244Z,45.71
2022-11-13T01:04:03.539Z,45.56
2022-11-13T01:04:44.794Z,45.46
2022-11-13T01:05:25.402Z,45.46
2022-11-13T01:06:11.122Z,45.28
2022-11-13T01:06:52.353Z,45.46
2022-11-13T01:07:32.439Z,45.52
2022-11-13T01:08:14.766Z,45.67
2022-11-13T01:08:56.764Z,45.59
2022-11-13T01:09:37.036Z,45.57
2022-11-13T01:10:18.441Z,45.38
2022-11-13T01:10:58.408Z,45.70
2022-11-13T01:11:40.027Z,45.39
2022-11-13T01:12:20.400Z,45.41
2022-11-13T01:13:01.718Z,45.30
2022-11-13T01:13:43.319Z,45.05
2022-11-13T01:14:24.633Z,45.17
2022-11-13T01:15:05.503Z,45.20
2022-11-13T01:15:45.545Z,45.47
2022-11-13T01:16:28.674Z,45.41
2022-11-13T01:17:08.951Z,45.39
2022-11-13T01:17:49.564Z,45.37
2022-11-13T01:18:32.012Z,45.28
2022-11-13T01:19:12.095Z,45.06
2022-11-13T01:19:53.431Z,45.12
2022-11-13T01:20:33.710Z,45.04
2022-11-13T01:21:17.059Z,45.02
2022-11-13T01:21:57.001Z,45.05
2022-11-13T01:22:37.611Z,45.15
2022-11-13T01:23:18.899Z,44.98
2022-11-13T01:23:59.159Z,44.88
2022-11-13T01:24:39.642Z,44.92
2022-11-13T01:25:20.869Z,44.67
2022-11-13T01:26:06.306Z,44.88
2022-11-13T01:26:47.746Z,44.86
2022-11-13T01:27:28.121Z,45.03
2022-11-13T01:28:09.696Z,45.10
2022-11-13T01:28:50.637Z,45.11
2022-11-13T01:31:03.559Z,45.29
2022-11-13T01:33:00.364Z,45.22
2022-11-13T01:40:44.998Z,45.41
2022-11-13T01:48:48.163Z,44.90
2022-11-13T01:50:58.113Z,44.91
2022-11-13T01:51:41.333Z,45.06
2022-11-13T01:52:25.882Z,44.97
2022-11-13T01:53:07.515Z,44.93
2022-11-13T01:53:48.516Z,44.89
2022-11-13T01:54:33.208Z,45.20
2022-11-13T01:55:19.290Z,44.97
2022-11-13T01:55:59.757Z,44.84
2022-11-13T01:56:42.222Z,45.23
2022-11-13T01:57:23.200Z,45.13
2022-11-13T01:58:06.305Z,45.18
2022-11-13T01:58:52.475Z,45.14
2022-11-13T01:59:36.124Z,45.36
2022-11-13T02:00:17.597Z,45.14
2022-11-13T02:11:27.802Z,45.78
2022-11-13T02:12:12.802Z,45.98
2022-11-13T02:12:54.120Z,45.95
2022-11-13T02:13:35.409Z,45.75
2022-11-13T02:14:18.078Z,45.77
2022-11-13T02:15:01.830Z,45.86
2022-11-13T02:15:44.634Z,45.91
2022-11-13T02:16:26.206Z,45.94
2022-11-13T02:17:09.917Z,45.71
2022-11-13T02:17:55.302Z,45.67
2022-11-13T02:18:37.499Z,45.74
2022-11-13T02:19:25.716Z,45.73
2022-11-13T02:20:08.171Z,45.86
2022-11-13T02:20:57.456Z,45.58
2022-11-13T02:21:44.487Z,45.99
2022-11-13T02:22:34.009Z,45.49
2022-11-13T02:23:21.030Z,45.53
2022-11-13T02:24:16.736Z,46.10
2022-11-13T02:24:59.949Z,46.00
2022-11-13T02:25:44.645Z,46.02
2022-11-13T02:26:26.585Z,45.79
2022-11-13T02:27:11.961Z,45.54
2022-11-13T02:27:52.539Z,45.46
2022-11-13T02:28:32.942Z,45.46
2022-11-13T02:29:14.532Z,45.42
2022-11-13T02:29:55.092Z,45.65
2022-11-13T02:30:37.587Z,45.60
2022-11-13T02:31:18.310Z,45.57
2022-11-13T02:42:59.271Z,46.03
2022-11-13T02:43:39.608Z,45.91
2022-11-13T02:44:20.252Z,45.83
2022-11-13T02:45:02.351Z,45.92
2022-11-13T02:45:42.866Z,45.96
2022-11-13T02:46:23.235Z,45.78
2022-11-13T02:47:04.827Z,46.12
2022-11-13T02:47:45.582Z,46.02
2022-11-13T02:48:27.644Z,45.77
2022-11-13T02:49:08.619Z,45.77
2022-11-13T02:49:49.278Z,45.95
2022-11-13T02:50:31.068Z,45.89
2022-11-13T02:51:13.043Z,45.92
2022-11-13T02:51:54.420Z,46.13
2022-11-13T02:52:35.009Z,46.08
2022-11-13T03:02:29.195Z,45.45
2022-11-13T03:14:12.298Z,45.45
2022-11-13T03:14:54.376Z,45.51
2022-11-13T03:15:34.932Z,45.55
2022-11-13T03:16:17.855Z,45.52
2022-11-13T03:16:58.753Z,45.97
2022-11-13T03:17:39.275Z,45.85
2022-11-13T03:18:20.718Z,45.71
2022-11-13T03:19:01.059Z,45.71
2022-11-13T03:19:41.163Z,45.82
2022-11-13T03:20:23.021Z,45.72
2022-11-13T03:21:07.321Z,45.57
2022-11-13T03:21:48.931Z,45.50
2022-11-13T03:22:29.194Z,45.72
2022-11-13T03:23:10.183Z,45.52
2022-11-13T03:23:51.166Z,45.60
2022-11-13T03:36:35.803Z,46.28
2022-11-13T03:37:37.752Z,46.52
2022-11-13T03:40:54.444Z,46.14
2022-11-13T03:42:39.957Z,45.91
2022-11-13T03:47:33.019Z,45.24
2022-11-13T03:52:50.952Z,44.93
2022-11-13T03:53:58.089Z,45.01
2022-11-13T03:54:58.029Z,44.75
2022-11-13T03:56:09.023Z,44.79
2022-11-13T03:57:54.805Z,45.03
2022-11-13T04:00:37.861Z,45.40
2022-11-13T04:02:23.008Z,45.33
2022-11-13T04:15:56.909Z,45.40
2022-11-13T04:16:37.738Z,45.09
2022-11-13T04:17:19.007Z,44.84
2022-11-13T04:17:59.226Z,45.20
2022-11-13T04:18:40.514Z,45.24
2022-11-13T04:19:20.706Z,45.13
2022-11-13T04:20:02.403Z,45.04
2022-11-13T04:20:43.069Z,44.86
2022-11-13T04:21:24.585Z,45.01
2022-11-13T04:22:05.329Z,44.77
2022-11-13T04:22:45.640Z,44.78
2022-11-13T04:23:27.310Z,44.79
2022-11-13T04:24:07.795Z,44.85
2022-11-13T04:24:48.383Z,44.61
2022-11-13T04:25:30.128Z,44.57
2022-11-13T04:26:10.946Z,44.39
2022-11-13T04:39:54.583Z,44.89
2022-11-13T04:40:37.299Z,44.53
2022-11-13T04:47:31.599Z,43.98
2022-11-13T04:48:11.495Z,43.96
2022-11-13T04:48:54.318Z,43.86
2022-11-13T04:49:34.610Z,44.08
2022-11-13T04:50:17.560Z,43.97
2022-11-13T04:50:57.794Z,43.79
2022-11-13T04:51:39.045Z,43.76
2022-11-13T04:52:19.576Z,43.78
2022-11-13T04:53:00.949Z,44.15
2022-11-13T04:53:41.911Z,44.28
2022-11-13T04:54:28.494Z,44.39
2022-11-13T04:55:10.821Z,44.32
2022-11-13T04:55:53.421Z,44.22
2022-11-13T04:56:33.768Z,43.88
2022-11-13T04:57:14.645Z,43.72
2022-11-13T05:07:54.299Z,44.04
2022-11-13T05:08:35.595Z,43.86
2022-11-13T05:09:20.067Z,44.05
2022-11-13T05:10:03.353Z,44.21
2022-11-13T05:10:46.000Z,44.23
2022-11-13T05:11:31.051Z,44.14
2022-11-13T05:12:15.484Z,44.23
2022-11-13T05:12:57.216Z,44.12
2022-11-13T05:13:43.455Z,44.28
2022-11-13T05:14:26.326Z,44.22
2022-11-13T05:15:12.537Z,44.21
2022-11-13T05:16:04.814Z,44.46
2022-11-13T05:16:54.283Z,44.31
2022-11-13T05:17:36.392Z,44.32
2022-11-13T05:28:53.692Z,44.60
2022-11-13T05:29:38.471Z,44.61
2022-11-13T05:30:28.934Z,44.51
2022-11-13T05:31:16.450Z,44.40
2022-11-13T05:32:01.618Z,44.39
2022-11-13T05:32:43.587Z,44.34
2022-11-13T05:33:26.485Z,44.38
2022-11-13T05:34:13.101Z,44.25
2022-11-13T05:34:54.081Z,44.39
2022-11-13T05:35:39.832Z,44.19
2022-11-13T05:36:26.287Z,44.34
2022-11-13T05:37:10.295Z,44.49
2022-11-13T05:37:55.459Z,44.56
2022-11-13T05:38:40.411Z,44.34
2022-11-13T05:39:21.672Z,44.49
2022-11-13T05:40:02.430Z,44.37
2022-11-13T05:40:43.865Z,44.45
2022-11-13T05:41:24.659Z,44.42
2022-11-13T05:42:07.063Z,44.22
2022-11-13T05:42:47.400Z,44.19
2022-11-13T05:43:27.775Z,44.21
2022-11-13T05:44:10.714Z,44.24
2022-11-13T05:44:51.169Z,44.24
2022-11-13T05:45:32.681Z,44.37
2022-11-13T05:46:16.544Z,44.47
2022-11-13T05:46:58.016Z,44.43
2022-11-13T05:47:38.631Z,44.41
2022-11-13T05:48:19.095Z,44.27
2022-11-13T05:49:02.575Z,44.32
2022-11-13T05:49:43.000Z,44.16
2022-11-13T05:50:24.588Z,44.13
2022-11-13T05:51:07.794Z,44.23
2022-11-13T05:51:50.066Z,44.40
2022-11-13T05:52:30.364Z,44.23
2022-11-13T05:53:11.954Z,44.50
2022-11-13T05:53:53.050Z,44.48
2022-11-13T05:54:33.506Z,44.59
2022-11-13T05:55:15.198Z,44.75
2022-11-13T05:56:00.341Z,44.60
2022-11-13T05:56:41.565Z,44.65
2022-11-13T05:57:22.060Z,44.58
2022-11-13T05:58:02.529Z,44.60
2022-11-13T05:58:45.066Z,44.56
2022-11-13T05:59:27.209Z,44.60
2022-11-13T06:00:08.657Z,44.55
2022-11-13T06:00:50.365Z,44.68
2022-11-13T06:01:33.173Z,44.84
2022-11-13T06:02:14.832Z,44.60
2022-11-13T06:02:56.453Z,44.52
2022-11-13T06:03:37.214Z,44.46
2022-11-13T06:04:19.032Z,44.65
2022-11-13T06:04:59.657Z,44.55
2022-11-13T06:05:40.228Z,44.56
2022-11-13T06:06:22.960Z,44.56
2022-11-13T06:07:03.430Z,44.25
2022-11-13T06:07:43.983Z,44.28
2022-11-13T06:08:25.597Z,44.28
2022-11-13T06:09:06.606Z,44.10
2022-11-13T06:09:48.843Z,44.13
2022-11-13T06:10:29.109Z,44.17
2022-11-13T06:11:12.231Z,43.96
2022-11-13T06:11:52.942Z,44.02
2022-11-13T06:12:34.987Z,43.63
2022-11-13T06:13:15.649Z,43.61
2022-11-13T06:13:59.077Z,43.39
2022-11-13T06:14:40.741Z,43.26
2022-11-13T06:15:22.062Z,43.19
2022-11-13T06:16:04.081Z,43.17
2022-11-13T06:16:45.638Z,43.08
2022-11-13T06:17:26.260Z,43.08
2022-11-13T06:18:07.013Z,43.20
2022-11-13T06:18:49.412Z,43.35
2022-11-13T06:19:29.678Z,43.40
2022-11-13T06:20:10.512Z,43.44
2022-11-13T06:20:52.224Z,43.48
2022-11-13T06:21:34.821Z,43.44
2022-11-13T06:22:16.035Z,43.23
2022-11-13T06:22:57.955Z,43.29
2022-11-13T06:23:39.460Z,43.08
2022-11-13T06:24:20.500Z,43.26
2022-11-13T06:25:00.652Z,43.09
2022-11-13T06:25:41.242Z,42.99
2022-11-13T06:26:25.248Z,42.87
2022-11-13T06:27:05.786Z,42.95
2022-11-13T06:27:46.203Z,43.08
2022-11-13T06:28:27.866Z,43.43
2022-11-13T06:29:12.116Z,42.86
2022-11-13T06:29:54.961Z,43.04
2022-11-13T06:30:35.335Z,42.82
2022-11-13T06:31:21.754Z,42.59
2022-11-13T06:32:04.388Z,42.49
2022-11-13T06:51:54.479Z,42.65
2022-11-13T06:52:35.358Z,42.74
2022-11-13T06:53:15.899Z,42.53
2022-11-13T06:53:58.244Z,42.50
2022-11-13T06:54:38.849Z,42.50
2022-11-13T06:55:20.027Z,42.78
2022-11-13T06:56:01.024Z,42.55
2022-11-13T06:56:45.399Z,42.48
2022-11-13T06:57:25.740Z,42.47
2022-11-13T06:58:06.928Z,42.31
2022-11-13T06:58:47.683Z,42.41
2022-11-13T06:59:29.038Z,42.54
2022-11-13T07:00:11.175Z,42.46
2022-11-13T07:00:52.976Z,42.41
2022-11-13T07:01:33.391Z,42.52
2022-11-13T07:02:13.875Z,42.48
2022-11-13T07:02:55.206Z,42.42
2022-11-13T07:03:36.182Z,42.40
2022-11-13T07:04:17.608Z,42.41
2022-11-13T07:04:57.845Z,42.34
2022-11-13T07:05:39.835Z,42.63
2022-11-13T07:06:22.435Z,42.77
2022-11-13T07:07:05.129Z,42.90
2022-11-13T07:07:45.307Z,42.83
2022-11-13T07:08:25.618Z,42.64
2022-11-13T07:09:07.234Z,42.64
2022-11-13T07:09:47.953Z,42.73
2022-11-13T07:10:28.440Z,42.68
2022-11-13T07:11:12.443Z,42.48
2022-11-13T07:11:52.812Z,42.64
2022-11-13T07:12:33.188Z,42.55
2022-11-13T07:23:16.869Z,42.40
2022-11-13T07:23:57.612Z,42.49
2022-11-13T07:24:38.879Z,42.24
2022-11-13T07:25:19.101Z,42.37
2022-11-13T07:25:59.446Z,42.43
2022-11-13T07:26:40.928Z,42.31
2022-11-13T07:27:21.282Z,42.51
2022-11-13T07:28:02.966Z,42.37
2022-11-13T07:28:43.773Z,42.41
2022-11-13T07:29:25.075Z,42.35
2022-11-13T07:30:06.348Z,42.03
2022-11-13T07:30:46.698Z,41.80
2022-11-13T07:31:28.265Z,41.71
2022-11-13T07:32:09.024Z,41.75
2022-11-13T07:32:50.184Z,41.31
2022-11-13T07:35:01.601Z,41.62
2022-11-13T07:37:06.601Z,41.31
2022-11-13T07:38:49.995Z,41.51
2022-11-13T07:39:32.141Z,41.33
2022-11-13T07:40:12.933Z,41.17
2022-11-13T07:41:06.997Z,40.89
2022-11-13T07:41:52.950Z,41.06
2022-11-13T07:42:47.791Z,41.01
2022-11-13T07:43:51.692Z,40.98
2022-11-13T07:44:53.411Z,40.60
2022-11-13T07:45:33.515Z,40.58
2022-11-13T07:46:15.391Z,40.66
2022-11-13T07:46:55.653Z,40.62
2022-11-13T07:47:36.170Z,40.62
2022-11-13T07:48:18.855Z,40.53
2022-11-13T07:48:59.214Z,40.54
2022-11-13T07:49:41.085Z,40.48
2022-11-13T07:50:22.059Z,40.37
2022-11-13T07:51:04.012Z,40.10
2022-11-13T07:51:44.496Z,40.19
2022-11-13T07:52:25.704Z,40.16
2022-11-13T07:53:08.291Z,40.13
2022-11-13T07:53:51.616Z,40.37
2022-11-13T07:54:36.942Z,40.51
2022-11-13T07:55:54.542Z,40.83
2022-11-13T07:56:36.018Z,41.20
2022-11-13T07:57:24.404Z,40.94
2022-11-13T07:58:14.240Z,40.79
2022-11-13T07:59:07.820Z,40.53
2022-11-13T07:59:56.668Z,40.45
2022-11-13T08:01:34.542Z,41.40
2022-11-13T08:02:31.169Z,40.89
2022-11-13T08:03:23.653Z,40.96
2022-11-13T08:04:05.187Z,41.36
2022-11-13T08:04:46.534Z,41.08
2022-11-13T08:05:26.743Z,41.26
2022-11-13T08:06:09.476Z,41.09
2022-11-13T08:06:49.874Z,41.36
2022-11-13T08:07:31.192Z,41.16
2022-11-13T08:08:13.096Z,41.13
2022-11-13T08:08:56.047Z,41.50
2022-11-13T08:09:36.321Z,41.17
2022-11-13T08:10:19.771Z,40.43
2022-11-13T08:11:05.228Z,40.23
2022-11-13T08:11:47.118Z,40.26
2022-11-13T08:12:27.383Z,40.47
2022-11-13T08:13:11.393Z,40.91
2022-11-13T08:13:52.438Z,40.44
2022-11-13T08:14:34.144Z,39.99
2022-11-13T08:15:15.089Z,40.40
2022-11-13T08:15:59.532Z,40.28
2022-11-13T08:16:40.476Z,39.74
2022-11-13T08:17:21.877Z,40.00
2022-11-13T08:18:04.282Z,39.80
2022-11-13T08:18:45.934Z,40.03
2022-11-13T08:19:26.178Z,40.20
2022-11-13T08:20:08.178Z,40.51
2022-11-13T08:20:49.149Z,40.92
2022-11-13T08:21:29.595Z,40.78
2022-11-13T08:22:11.236Z,40.84
2022-11-13T08:22:52.154Z,40.62
2022-11-13T08:23:33.633Z,40.76
2022-11-13T08:24:15.284Z,40.31
2022-11-13T08:24:56.724Z,40.00
2022-11-13T08:25:37.331Z,39.79
2022-11-13T08:26:19.284Z,39.86
2022-11-13T08:26:59.706Z,39.93
2022-11-13T08:27:40.028Z,39.46
2022-11-13T08:28:21.385Z,38.70
2022-11-13T08:29:01.553Z,38.62
2022-11-13T08:29:43.457Z,38.30
2022-11-13T08:30:26.066Z,38.23
2022-11-13T08:31:12.330Z,38.47
2022-11-13T08:31:52.785Z,38.64
2022-11-13T08:32:34.576Z,38.67
2022-11-13T08:33:14.589Z,38.57
2022-11-13T08:33:56.024Z,38.74
2022-11-13T08:34:37.239Z,38.66
2022-11-13T08:35:19.706Z,38.67
2022-11-13T08:36:16.466Z,38.38
2022-11-13T08:46:47.354Z,37.91
2022-11-13T08:47:29.666Z,38.13
2022-11-13T08:48:11.426Z,37.79
2022-11-13T08:48:51.881Z,37.41
2022-11-13T08:49:33.687Z,37.23
2022-11-13T08:50:14.583Z,37.39
2022-11-13T08:50:57.344Z,37.65
2022-11-13T08:51:38.088Z,37.33
2022-11-13T08:52:19.244Z,37.62
2022-11-13T08:53:01.148Z,37.60
2022-11-13T08:53:42.938Z,38.17
2022-11-13T08:54:23.253Z,38.21
2022-11-13T08:55:05.556Z,38.61
2022-11-13T08:55:45.899Z,38.67
2022-11-13T08:56:26.359Z,37.86
2022-11-13T08:57:07.804Z,38.20
2022-11-13T08:57:48.528Z,37.95
2022-11-13T08:58:29.052Z,37.11
2022-11-13T08:59:11.301Z,37.31
2022-11-13T08:59:51.682Z,37.27
2022-11-13T09:00:34.267Z,36.96
2022-11-13T09:01:14.516Z,37.38
2022-11-13T09:01:59.330Z,37.04
2022-11-13T09:02:39.499Z,36.29
2022-11-13T09:03:21.041Z,36.29
2022-11-13T09:04:02.803Z,35.79
2022-11-13T09:04:44.346Z,35.89
2022-11-13T09:05:25.384Z,35.96
2022-11-13T09:06:07.363Z,35.54
2022-11-13T09:06:47.450Z,35.70
2022-11-13T09:07:29.065Z,35.61
2022-11-13T09:08:10.598Z,35.54
2022-11-13T09:08:52.020Z,35.22
2022-11-13T09:09:33.199Z,35.60
2022-11-13T09:10:13.864Z,35.72
2022-11-13T09:10:56.749Z,35.79
2022-11-13T09:11:37.034Z,35.76
2022-11-13T09:12:18.471Z,35.84
2022-11-13T09:13:01.513Z,35.71
2022-11-13T09:13:45.147Z,35.78
2022-11-13T09:14:28.120Z,35.31
2022-11-13T09:15:11.018Z,35.40
2022-11-13T09:15:51.672Z,35.27
2022-11-13T09:16:34.681Z,35.23
2022-11-13T09:17:16.388Z,35.07
2022-11-13T09:30:51.225Z,35.98
2022-11-13T09:31:33.937Z,35.68
2022-11-13T09:38:18.705Z,35.07
2022-11-13T09:39:00.864Z,34.79
2022-11-13T09:39:42.271Z,35.03
2022-11-13T09:40:29.228Z,34.64
2022-11-13T09:41:12.760Z,34.23
2022-11-13T09:41:57.589Z,34.08
2022-11-13T09:42:40.374Z,34.62
2022-11-13T09:43:29.674Z,34.71
2022-11-13T09:44:16.767Z,35.05
2022-11-13T09:45:03.963Z,34.69
2022-11-13T09:45:44.545Z,34.49
2022-11-13T09:46:41.771Z,34.64
2022-11-13T09:47:26.224Z,35.21
2022-11-13T09:48:20.173Z,34.95
2022-11-13T09:49:06.883Z,34.92
2022-11-13T09:49:51.594Z,34.89
2022-11-13T09:50:32.403Z,34.31
2022-11-13T09:51:16.753Z,34.36
2022-11-13T09:52:06.586Z,35.09
2022-11-13T09:52:49.191Z,34.84
2022-11-13T09:53:34.561Z,34.83
2022-11-13T09:54:17.149Z,34.92
2022-11-13T09:54:58.553Z,34.85
2022-11-13T09:55:49.548Z,34.89
2022-11-13T09:56:34.060Z,35.06
2022-11-13T09:57:27.713Z,34.69
2022-11-13T09:58:18.787Z,34.65
2022-11-13T09:59:21.358Z,34.78
2022-11-13T10:00:30.346Z,34.67
2022-11-13T10:01:50.923Z,34.60
2022-11-13T10:03:05.269Z,34.41
2022-11-13T10:04:32.690Z,34.02
2022-11-13T10:05:24.515Z,33.79
2022-11-13T10:09:26.408Z,33.51
2022-11-13T10:10:43.923Z,33.46
2022-11-13T10:11:40.767Z,33.78
2022-11-13T10:12:23.230Z,33.30
2022-11-13T10:13:05.067Z,32.93
2022-11-13T10:13:48.596Z,32.83
2022-11-13T10:14:36.361Z,32.84
2022-11-13T10:15:19.145Z,33.07
2022-11-13T10:16:06.692Z,32.96
2022-11-13T10:16:54.180Z,32.73
2022-11-13T10:17:38.651Z,32.82
2022-11-13T10:18:23.720Z,32.97
2022-11-13T10:19:13.630Z,32.62
2022-11-13T10:24:38.633Z,33.46
2022-11-13T10:41:13.838Z,32.36
2022-11-13T10:41:55.618Z,32.45
2022-11-13T10:42:41.061Z,32.21
2022-11-13T10:43:23.348Z,32.17
2022-11-13T10:44:18.844Z,31.85
2022-11-13T10:45:00.860Z,31.85
2022-11-13T10:45:43.051Z,31.38
2022-11-13T10:46:25.795Z,30.77
2022-11-13T10:47:15.807Z,30.70
2022-11-13T10:48:04.398Z,30.73
2022-11-13T10:48:46.461Z,30.56
2022-11-13T10:49:29.190Z,30.61
2022-11-13T10:50:12.253Z,30.33
2022-11-13T10:50:55.382Z,30.19
2022-11-13T11:01:46.138Z,27.33
2022-11-13T11:02:27.838Z,26.94
2022-11-13T11:03:10.550Z,26.55
2022-11-13T11:03:51.204Z,26.84
2022-11-13T11:04:32.827Z,26.64
2022-11-13T11:05:18.664Z,26.15
2022-11-13T11:06:02.134Z,26.58
2022-11-13T11:07:17.939Z,26.67
2022-11-13T11:07:44.853Z,26.99
2022-11-13T11:08:31.286Z,26.96
2022-11-13T11:09:23.156Z,27.59
2022-11-13T11:10:04.011Z,27.54
2022-11-13T11:11:13.445Z,27.94
2022-11-13T11:14:38.820Z,27.66
2022-11-13T11:15:46.543Z,27.28
2022-11-13T11:17:12.305Z,26.86
2022-11-13T11:18:36.085Z,27.25
2022-11-13T11:19:33.765Z,27.58
2022-11-13T11:33:31.870Z,29.64
2022-11-13T11:34:18.774Z,30.14
2022-11-13T11:35:06.203Z,28.51
2022-11-13T11:35:52.480Z,28.30
2022-11-13T11:36:37.840Z,28.37
2022-11-13T11:37:20.642Z,28.13
2022-11-13T11:38:09.984Z,28.19
2022-11-13T11:38:56.989Z,27.80
2022-11-13T11:39:44.623Z,27.90
2022-11-13T11:40:33.028Z,27.96
2022-11-13T11:41:17.078Z,28.49
2022-11-13T11:42:06.618Z,28.28
2022-11-13T11:42:55.045Z,28.50
2022-11-13T11:54:42.424Z,27.44
2022-11-13T11:55:46.074Z,27.38
2022-11-13T11:56:32.645Z,27.68
2022-11-13T11:57:29.680Z,28.64
2022-11-13T11:58:22.383Z,28.74
2022-11-13T11:59:12.492Z,29.41
2022-11-13T12:00:04.897Z,28.66
2022-11-13T12:00:50.356Z,26.57
2022-11-13T12:01:45.685Z,25.43
2022-11-13T12:02:53.096Z,26.28
2022-11-13T12:03:49.821Z,25.68
2022-11-13T12:04:43.587Z,26.04
2022-11-13T12:05:29.638Z,25.67
2022-11-13T12:06:19.586Z,24.94
2022-11-13T12:07:14.726Z,24.49
2022-11-13T12:08:15.061Z,23.87
2022-11-13T12:09:08.742Z,23.36
2022-11-13T12:09:57.385Z,23.35
2022-11-13T12:10:44.804Z,22.59
2022-11-13T12:11:29.595Z,23.82
2022-11-13T12:12:23.643Z,23.16
2022-11-13T12:13:29.183Z,23.12
2022-11-13T12:14:24.451Z,23.43
2022-11-13T12:15:12.129Z,22.76
2022-11-13T12:16:01.046Z,23.01
2022-11-13T12:16:52.981Z,22.96
2022-11-13T12:17:46.138Z,23.06
2022-11-13T12:18:37.144Z,23.29
2022-11-13T12:19:24.438Z,22.15
2022-11-13T12:20:18.995Z,22.07
2022-11-13T12:21:12.038Z,20.19
2022-11-13T12:22:03.960Z,20.80
2022-11-13T12:22:53.520Z,21.19
2022-11-13T12:23:53.947Z,21.38
2022-11-13T12:24:59.512Z,19.52
2022-11-13T12:25:52.157Z,19.95
2022-11-13T12:26:41.770Z,20.55
2022-11-13T12:27:32.525Z,19.18
2022-11-13T12:28:21.101Z,18.85
2022-11-13T12:29:13.232Z,20.95
2022-11-13T12:30:05.134Z,21.44
2022-11-13T12:30:57.771Z,21.48
2022-11-13T12:31:50.036Z,21.75
2022-11-13T12:32:40.810Z,20.46
2022-11-13T12:33:35.299Z,21.27
2022-11-13T12:34:24.769Z,21.30
2022-11-13T12:35:11.275Z,22.23
2022-11-13T12:35:53.729Z,21.84
2022-11-13T12:36:37.233Z,21.80
2022-11-13T12:37:26.905Z,21.17
2022-11-13T12:38:18.150Z,20.54
2022-11-13T12:39:06.155Z,21.39
2022-11-13T12:39:55.899Z,21.63
2022-11-13T12:40:44.629Z,21.41
2022-11-13T12:41:35.339Z,21.25
2022-11-13T12:42:22.638Z,21.87
2022-11-13T12:43:25.338Z,21.41
2022-11-13T12:44:22.019Z,21.18
2022-11-13T12:45:11.206Z,21.05
2022-11-13T12:45:53.493Z,20.59
2022-11-13T12:46:37.435Z,21.00
2022-11-13T12:47:18.087Z,22.35
2022-11-13T12:48:09.187Z,22.69
2022-11-13T12:48:49.382Z,23.05
2022-11-13T12:49:33.230Z,22.11
2022-11-13T12:50:30.305Z,21.63
2022-11-13T12:51:15.331Z,22.45
2022-11-13T12:51:57.335Z,20.51
2022-11-13T12:52:38.756Z,20.81
2022-11-13T12:53:26.810Z,20.97
2022-11-13T12:54:11.443Z,21.03
2022-11-13T12:55:02.880Z,21.65
2022-11-13T12:56:00.328Z,20.92
2022-11-13T12:56:40.868Z,21.32
2022-11-13T12:57:30.002Z,21.51
2022-11-13T12:58:19.571Z,21.89
2022-11-13T12:59:29.274Z,22.81
2022-11-13T13:00:25.123Z,22.49
2022-11-13T13:01:14.593Z,22.54
2022-11-13T13:02:02.210Z,23.07
2022-11-13T13:02:56.061Z,22.84
2022-11-13T13:04:05.491Z,23.57
2022-11-13T13:05:02.728Z,22.81
2022-11-13T13:06:00.871Z,23.24
2022-11-13T13:06:54.958Z,23.53
2022-11-13T13:07:56.271Z,23.22
2022-11-13T13:08:57.650Z,23.48
2022-11-13T13:09:51.151Z,23.90
2022-11-13T13:10:42.306Z,24.40
2022-11-13T13:11:36.264Z,23.84
2022-11-13T13:12:27.438Z,23.96
2022-11-13T13:13:19.503Z,24.09
2022-11-13T13:14:25.526Z,23.98
2022-11-13T13:15:24.066Z,24.40
2022-11-13T13:16:07.039Z,24.28
2022-11-13T13:34:35.119Z,27.63
2022-11-13T13:35:21.511Z,28.08
2022-11-13T13:36:21.811Z,27.83
2022-11-13T13:37:18.225Z,28.00
2022-11-13T13:39:53.265Z,26.59
2022-11-13T13:40:50.928Z,26.59
2022-11-13T13:42:05.702Z,27.25
2022-11-13T13:43:15.121Z,26.15
2022-11-13T13:46:49.933Z,26.93
2022-11-13T13:48:07.208Z,26.48
2022-11-13T14:10:16.970Z,29.42
2022-11-13T14:10:57.303Z,29.15
2022-11-13T14:11:38.746Z,29.29
2022-11-13T14:12:21.445Z,29.58
2022-11-13T14:13:03.852Z,29.16
2022-11-13T14:13:43.955Z,29.24
2022-11-13T14:14:26.180Z,28.18
2022-11-13T14:15:21.993Z,29.77
2022-11-13T14:16:05.193Z,28.24
2022-11-13T14:16:49.498Z,29.56
2022-11-13T14:17:32.261Z,28.72
2022-11-13T14:18:14.752Z,29.32
2022-11-13T14:19:04.725Z,29.28
2022-11-13T14:19:49.871Z,29.28
2022-11-13T14:20:33.865Z,28.43
2022-11-13T14:21:18.049Z,29.73
2022-11-13T14:22:01.980Z,31.26
2022-11-13T14:22:44.580Z,31.59
2022-11-13T14:23:29.548Z,32.08
2022-11-13T14:24:16.629Z,32.04
2022-11-13T14:25:01.427Z,32.71
2022-11-13T14:25:44.288Z,30.75
2022-11-13T14:26:25.930Z,31.62
2022-11-13T14:27:08.806Z,32.39
2022-11-13T14:27:50.305Z,33.15
2022-11-13T14:28:33.674Z,32.93
2022-11-13T14:29:29.191Z,32.95
2022-11-13T14:30:23.972Z,32.21
2022-11-13T14:31:08.104Z,32.16
2022-11-13T14:31:49.262Z,33.09
2022-11-13T14:32:33.176Z,33.41
2022-11-13T14:33:17.626Z,32.65
2022-11-13T14:34:02.892Z,32.90
2022-11-13T14:34:44.312Z,32.51
2022-11-13T14:35:27.771Z,32.21
2022-11-13T14:36:08.552Z,32.57
2022-11-13T14:36:51.029Z,32.25
2022-11-13T14:37:34.266Z,32.30
2022-11-13T14:38:21.130Z,32.26
2022-11-13T14:39:01.798Z,32.24
2022-11-13T14:50:23.107Z,34.34
2022-11-13T14:51:05.801Z,33.86
2022-11-13T14:51:56.056Z,34.27
2022-11-13T14:52:36.665Z,33.87
2022-11-13T14:53:28.555Z,33.79
2022-11-13T14:54:33.746Z,33.72
2022-11-13T14:55:26.233Z,33.60